Terminal Aerodrome Forecast
Issued by NWS Charleston, SC

Home | Current Version | Previous Version | Text Only | Print | Product List | Glossary On
Versions: 1 2 3 4 5 6 7 8 9 10 11 12 13 14 15
000
FTUS42 KCHS 201700
TAFCHS
TAF
KCHS 201724Z 2018/2118 17009KT P6SM BKN045
     FM210000 VRB03KT P6SM SCT020 BKN050
     FM211200 31007KT P6SM SKC=

USA.gov is the U.S. government's official web portal to all federal, state and local government web resources and services.